Time;durP1;ratioP1;P1;durP2;ratioP2;P2;SDS_P1;SDS_P2;PMS_P1;PMS_P2;Temp;Humidity;BMP_temperature;BMP_pressure;BME280_temperature;BME280_humidity;BME280_pressure;Samples;Min_cycle;Max_cycle;Signal;HPM_P1;HPM_P2
2021/07/24 00:01:00;;;;;;;20.30;12.35;;;;;;;;;;5011116;28;20054;-64
2021/07/24 00:03:28;;;;;;;19.40;12.52;;;;;;;;;;5010499;28;20560;-65
2021/07/24 00:05:57;;;;;;;19.17;12.35;;;;;;;;;;5010640;28;20486;-65
2021/07/24 00:08:25;;;;;;;23.05;12.30;;;;;;;;;;5011082;28;20517;-65
2021/07/24 00:10:54;;;;;;;19.08;11.88;;;;;;;;;;5011365;28;20132;-65
2021/07/24 00:13:23;;;;;;;22.65;12.90;;;;;;;;;;5004719;28;20409;-65
2021/07/24 00:15:51;;;;;;;17.95;11.82;;;;;;;;;;5010714;28;20042;-65
2021/07/24 00:18:19;;;;;;;17.92;11.98;;;;;;;;;;5010446;28;20048;-65
2021/07/24 00:20:48;;;;;;;18.80;12.15;;;;;;;;;;5010473;28;20050;-65
2021/07/24 00:23:16;;;;;;;18.30;12.18;;;;;;;;;;5010997;28;20151;-65
2021/07/24 00:25:44;;;;;;;21.02;12.10;;;;;;;;;;5010025;28;20050;-65
2021/07/24 00:28:14;;;;;;;18.48;12.02;;;;;;;;;;5009432;28;20052;-65
2021/07/24 00:30:42;;;;;;;18.58;12.30;;;;;;;;;;5010811;28;20137;-65
2021/07/24 00:33:11;;;;;;;16.92;11.40;;;;;;;;;;5010020;28;20042;-65
2021/07/24 00:35:39;;;;;;;18.20;12.15;;;;;;;;;;5009570;28;20472;-65
2021/07/24 00:38:08;;;;;;;17.58;11.82;;;;;;;;;;5011689;28;20541;-65
2021/07/24 00:40:37;;;;;;;21.30;11.80;;;;;;;;;;5010756;28;20050;-65
2021/07/24 00:43:08;;;;;;;20.83;12.23;;;;;;;;;;5009474;28;20056;-65
2021/07/24 00:45:43;;;;;;;21.63;12.15;;;;;;;;;;5009916;28;20136;-65
2021/07/24 00:48:12;;;;;;;19.98;11.60;;;;;;;;;;5010230;28;20108;-65
2021/07/24 00:50:41;;;;;;;18.35;12.40;;;;;;;;;;5010226;28;20046;-65
2021/07/24 00:53:12;;;;;;;21.30;12.93;;;;;;;;;;5010194;28;20052;-65
2021/07/24 00:55:41;;;;;;;20.20;12.52;;;;;;;;;;5008914;28;20045;-65
2021/07/24 00:58:35;;;;;;;20.08;12.40;;;;;;;;;;5009854;28;20461;-65
2021/07/24 01:01:06;;;;;;;18.75;11.82;;;;;;;;;;4997730;28;20042;-65
2021/07/24 01:03:35;;;;;;;21.60;11.77;;;;;;;;;;5037528;22;20061;-93
2021/07/24 01:06:06;;;;;;;21.02;12.80;;;;;;;;;;5016838;28;20050;-93
2021/07/24 01:08:38;;;;;;;21.45;12.73;;;;;;;;;;5014897;28;20101;-94
2021/07/24 01:11:07;;;;;;;20.20;12.00;;;;;;;;;;5015771;28;20556;-93
2021/07/24 01:13:36;;;;;;;18.02;11.80;;;;;;;;;;5015584;28;20133;-93
2021/07/24 01:16:08;;;;;;;18.20;11.40;;;;;;;;;;5015921;28;20056;-93
2021/07/24 01:18:37;;;;;;;20.42;13.60;;;;;;;;;;5015318;28;20054;-93
2021/07/24 01:21:07;;;;;;;20.15;12.65;;;;;;;;;;5016002;28;20446;-93
2021/07/24 01:23:39;;;;;;;19.70;12.32;;;;;;;;;;5005325;28;20104;-93
2021/07/24 01:26:08;;;;;;;18.08;12.07;;;;;;;;;;4998986;28;20053;-93
2021/07/24 01:28:37;;;;;;;18.33;12.50;;;;;;;;;;5012575;28;20056;-92
2021/07/24 01:31:07;;;;;;;19.85;11.95;;;;;;;;;;5012096;28;20081;-93
2021/07/24 01:33:36;;;;;;;18.58;12.00;;;;;;;;;;5007742;28;20050;-93
2021/07/24 01:36:05;;;;;;;20.80;13.07;;;;;;;;;;5006628;28;20471;-93
2021/07/24 01:38:38;;;;;;;20.20;12.82;;;;;;;;;;5008397;28;20081;-93
2021/07/24 01:41:08;;;;;;;18.42;11.85;;;;;;;;;;5015973;28;20084;-93
2021/07/24 01:43:37;;;;;;;18.58;12.43;;;;;;;;;;5005355;28;20092;-93
2021/07/24 01:46:06;;;;;;;20.80;12.20;;;;;;;;;;4996440;28;20157;-93
2021/07/24 01:48:37;;;;;;;19.92;12.60;;;;;;;;;;5006235;28;20050;-93
2021/07/24 01:54:22;;;;;;;17.52;11.75;;;;;;;;;;4998665;28;20054;-93
2021/07/24 01:56:56;;;;;;;18.45;11.48;;;;;;;;;;5005720;28;20049;-93
2021/07/24 01:59:32;;;;;;;20.27;11.68;;;;;;;;;;5018586;28;20056;-93
2021/07/24 02:02:03;;;;;;;19.48;12.32;;;;;;;;;;5010148;28;20074;-93
2021/07/24 02:04:35;;;;;;;19.55;12.27;;;;;;;;;;5017002;28;20062;-93
2021/07/24 02:07:04;;;;;;;22.45;12.57;;;;;;;;;;5007081;28;20062;-93
2021/07/24 02:10:02;;;;;;;22.15;13.38;;;;;;;;;;4998104;28;20074;-93
2021/07/24 02:12:35;;;;;;;18.92;12.60;;;;;;;;;;5005968;28;20074;-93
2021/07/24 02:15:05;;;;;;;18.33;12.20;;;;;;;;;;5007129;28;20050;-93
2021/07/24 02:17:34;;;;;;;20.25;12.88;;;;;;;;;;4996481;28;20585;-93
2021/07/24 02:20:04;;;;;;;18.25;12.30;;;;;;;;;;5015825;28;20058;-94
2021/07/24 02:22:33;;;;;;;18.90;12.32;;;;;;;;;;5014837;28;20060;-93
2021/07/24 02:25:02;;;;;;;19.67;12.52;;;;;;;;;;5010592;28;20054;-93
2021/07/24 02:27:36;;;;;;;19.42;12.88;;;;;;;;;;5015746;28;20077;-93
2021/07/24 02:30:05;;;;;;;21.90;12.85;;;;;;;;;;5011221;28;20100;-93
2021/07/24 02:32:34;;;;;;;18.75;12.80;;;;;;;;;;4995481;28;20051;-93
2021/07/24 02:35:03;;;;;;;18.25;12.05;;;;;;;;;;4982166;28;20104;-93
2021/07/24 02:37:32;;;;;;;18.77;12.60;;;;;;;;;;5003011;28;20115;-93
2021/07/24 02:40:02;;;;;;;20.25;13.38;;;;;;;;;;5011970;28;20487;-93
2021/07/24 02:42:33;;;;;;;20.60;12.77;;;;;;;;;;5000951;28;20042;-93
2021/07/24 02:45:02;;;;;;;18.38;12.65;;;;;;;;;;5002431;28;20347;-93
2021/07/24 02:47:36;;;;;;;20.88;12.18;;;;;;;;;;4996643;28;20506;-93
2021/07/24 02:50:05;;;;;;;20.75;12.75;;;;;;;;;;4998943;28;20056;-93
2021/07/24 02:52:34;;;;;;;18.10;12.32;;;;;;;;;;5014107;28;20049;-93
2021/07/24 02:55:04;;;;;;;20.48;12.93;;;;;;;;;;5001925;28;20065;-93
2021/07/24 02:57:34;;;;;;;20.23;13.07;;;;;;;;;;5014848;28;20187;-93
2021/07/24 03:00:04;;;;;;;22.00;12.77;;;;;;;;;;5011781;28;20046;-93
2021/07/24 03:02:33;;;;;;;19.92;12.55;;;;;;;;;;5013296;28;20440;-93
2021/07/24 03:05:02;;;;;;;21.88;12.32;;;;;;;;;;5008692;28;20519;-93
2021/07/24 03:07:31;;;;;;;25.42;14.35;;;;;;;;;;5022138;28;20206;-93
2021/07/24 03:10:00;;;;;;;22.90;13.88;;;;;;;;;;5000538;28;20053;-93
2021/07/24 03:12:28;;;;;;;21.48;13.32;;;;;;;;;;5000146;28;20049;-93
2021/07/24 03:14:58;;;;;;;21.55;12.88;;;;;;;;;;5004116;28;20061;-93
2021/07/24 03:17:29;;;;;;;21.60;13.55;;;;;;;;;;5015115;28;20057;-94
2021/07/24 03:19:59;;;;;;;23.02;13.38;;;;;;;;;;5008629;28;20145;-93
2021/07/24 03:22:28;;;;;;;20.55;12.52;;;;;;;;;;4997622;28;20056;-93
2021/07/24 03:25:00;;;;;;;23.40;13.30;;;;;;;;;;5005995;28;20077;-93
2021/07/24 03:27:29;;;;;;;19.38;12.18;;;;;;;;;;5000984;28;20069;-92
2021/07/24 03:30:00;;;;;;;21.92;13.68;;;;;;;;;;5004922;28;20050;-93
2021/07/24 03:32:29;;;;;;;18.30;12.10;;;;;;;;;;4953955;28;20055;-94
2021/07/24 03:35:11;;;;;;;22.05;12.80;;;;;;;;;;1740420;28;10021843;-93
2021/07/24 03:37:40;;;;;;;18.27;12.65;;;;;;;;;;3924634;29;10001123;-93
2021/07/24 03:40:10;;;;;;;19.90;13.55;;;;;;;;;;4958541;29;20047;-93
2021/07/24 03:42:40;;;;;;;21.98;13.48;;;;;;;;;;4959656;29;20086;-93
2021/07/24 03:45:12;;;;;;;24.30;14.20;;;;;;;;;;4953347;28;20051;-93
2021/07/24 03:47:40;;;;;;;21.30;13.77;;;;;;;;;;4957068;29;20055;-93
2021/07/24 03:50:12;;;;;;;21.33;13.02;;;;;;;;;;4957660;29;20487;-93
2021/07/24 03:52:41;;;;;;;21.85;14.05;;;;;;;;;;4941795;29;20078;-93
2021/07/24 03:55:11;;;;;;;22.13;13.55;;;;;;;;;;4949131;28;20189;-93
2021/07/24 03:57:40;;;;;;;22.38;12.93;;;;;;;;;;4956691;29;20059;-93
2021/07/24 04:00:12;;;;;;;24.92;13.98;;;;;;;;;;4957079;29;20451;-93
2021/07/24 04:02:42;;;;;;;24.45;13.70;;;;;;;;;;4953000;28;20059;-93
2021/07/24 04:05:13;;;;;;;19.08;13.77;;;;;;;;;;4957545;28;20614;-93
2021/07/24 04:07:42;;;;;;;22.02;14.05;;;;;;;;;;4957590;28;20491;-93
2021/07/24 04:10:16;;;;;;;23.08;13.60;;;;;;;;;;4957555;29;20492;-93
2021/07/24 04:12:49;;;;;;;19.55;12.95;;;;;;;;;;4954084;29;20075;-93
2021/07/24 04:15:20;;;;;;;23.05;13.85;;;;;;;;;;4941473;29;20054;-93
2021/07/24 04:17:49;;;;;;;22.35;13.73;;;;;;;;;;4956618;29;20050;-92
2021/07/24 04:20:22;;;;;;;22.13;13.93;;;;;;;;;;4956510;29;20527;-93
2021/07/24 04:22:51;;;;;;;20.55;12.98;;;;;;;;;;4955784;29;20051;-92
2021/07/24 04:25:34;;;;;;;18.95;12.57;;;;;;;;;;4956389;28;20051;-93
2021/07/24 04:28:04;;;;;;;20.90;12.23;;;;;;;;;;4957198;29;20055;-93
2021/07/24 04:30:35;;;;;;;20.60;13.23;;;;;;;;;;4955785;28;20058;-93
2021/07/24 04:33:04;;;;;;;22.10;12.20;;;;;;;;;;4955542;28;20138;-93
2021/07/24 04:35:33;;;;;;;20.20;12.50;;;;;;;;;;4956353;28;20059;-94
2021/07/24 04:38:03;;;;;;;20.77;12.43;;;;;;;;;;4953372;29;20102;-93
2021/07/24 04:40:32;;;;;;;19.15;12.88;;;;;;;;;;4955116;29;20365;-93
2021/07/24 04:43:01;;;;;;;18.23;13.10;;;;;;;;;;4951491;29;20090;-93
2021/07/24 04:45:32;;;;;;;18.13;12.45;;;;;;;;;;4938538;29;20056;-94
2021/07/24 04:48:05;;;;;;;20.92;12.35;;;;;;;;;;4943942;29;20163;-92
2021/07/24 04:50:35;;;;;;;21.67;12.05;;;;;;;;;;4945064;29;20558;-94
2021/07/24 04:53:04;;;;;;;19.80;12.77;;;;;;;;;;4942351;29;20474;-93
2021/07/24 04:55:33;;;;;;;19.42;12.30;;;;;;;;;;4953076;28;20051;-93
2021/07/24 04:58:03;;;;;;;18.98;12.70;;;;;;;;;;4956837;29;20059;-93
2021/07/24 05:00:32;;;;;;;20.83;12.90;;;;;;;;;;4953195;29;20444;-93
2021/07/24 05:03:03;;;;;;;20.50;12.23;;;;;;;;;;4955288;29;20507;-93
2021/07/24 05:05:33;;;;;;;20.35;12.80;;;;;;;;;;4954629;28;20110;-93
2021/07/24 05:08:04;;;;;;;18.58;11.05;;;;;;;;;;4950874;29;20130;-93
2021/07/24 05:10:33;;;;;;;23.27;13.50;;;;;;;;;;4955890;28;20051;-93
2021/07/24 05:13:04;;;;;;;20.75;12.50;;;;;;;;;;4955357;28;20087;-94
2021/07/24 05:15:33;;;;;;;21.50;13.57;;;;;;;;;;4955699;28;20079;-93
2021/07/24 05:18:04;;;;;;;19.70;12.80;;;;;;;;;;4956020;29;20043;-92
2021/07/24 05:20:33;;;;;;;19.50;12.88;;;;;;;;;;4955518;28;20058;-93
2021/07/24 05:23:04;;;;;;;19.67;12.95;;;;;;;;;;4954453;29;20464;-92
2021/07/24 05:25:35;;;;;;;18.67;13.10;;;;;;;;;;4955494;28;20118;-93
2021/07/24 05:28:04;;;;;;;20.75;12.32;;;;;;;;;;4954206;29;20051;-93
2021/07/24 05:30:34;;;;;;;22.95;13.82;;;;;;;;;;4953278;29;20130;-93
2021/07/24 05:33:04;;;;;;;21.15;13.18;;;;;;;;;;4954885;29;20058;-93
2021/07/24 05:35:34;;;;;;;23.42;13.23;;;;;;;;;;4956180;28;20107;-93
2021/07/24 05:38:03;;;;;;;20.77;13.60;;;;;;;;;;4954915;28;20427;-93
2021/07/24 05:40:39;;;;;;;20.05;12.68;;;;;;;;;;4954699;29;20047;-94
2021/07/24 05:43:08;;;;;;;19.50;13.65;;;;;;;;;;4955752;29;20055;-93
2021/07/24 05:46:02;;;;;;;20.48;12.60;;;;;;;;;;4954180;29;20380;-93
2021/07/24 05:48:37;;;;;;;19.15;12.80;;;;;;;;;;4954664;29;20670;-93
2021/07/24 05:51:10;;;;;;;27.20;14.98;;;;;;;;;;4940583;29;20062;-92
2021/07/24 05:53:43;;;;;;;22.25;13.93;;;;;;;;;;4937911;29;20066;-93
2021/07/24 05:56:11;;;;;;;29.25;14.80;;;;;;;;;;4941378;29;20061;-93
2021/07/24 05:58:48;;;;;;;22.27;13.85;;;;;;;;;;4954655;29;20086;-93
2021/07/24 06:01:17;;;;;;;20.00;13.13;;;;;;;;;;4955076;29;20051;-93
2021/07/24 06:06:35;;;;;;;27.15;15.32;;;;;;;;;;4955356;28;20063;-93
2021/07/24 06:09:04;;;;;;;22.95;13.75;;;;;;;;;;4953248;29;20043;-93
2021/07/24 06:11:34;;;;;;;29.98;14.80;;;;;;;;;;4948023;29;20055;-93
2021/07/24 06:14:24;;;;;;;24.88;13.00;;;;;;;;;;4955707;28;20094;-93
2021/07/24 06:17:07;;;;;;;27.43;14.63;;;;;;;;;;4955954;28;20066;-93
2021/07/24 06:19:58;;;;;;;24.83;14.40;;;;;;;;;;4956023;29;20074;-93
2021/07/24 06:22:33;;;;;;;21.42;14.40;;;;;;;;;;4955217;29;20063;-92
2021/07/24 06:25:19;;;;;;;33.22;15.70;;;;;;;;;;4920942;29;20412;-92
2021/07/24 06:27:48;;;;;;;25.20;15.10;;;;;;;;;;4956557;29;20106;-93
2021/07/24 06:30:18;;;;;;;25.45;15.25;;;;;;;;;;4957237;29;20071;-93
2021/07/24 06:32:52;;;;;;;24.48;14.57;;;;;;;;;;4958632;29;20082;-93
2021/07/24 06:35:48;;;;;;;22.85;12.40;;;;;;;;;;4931280;29;20062;-93
2021/07/24 06:41:40;;;;;;;24.88;14.38;;;;;;;;;;4959127;29;20059;-93
2021/07/24 06:44:12;;;;;;;23.27;14.00;;;;;;;;;;4960012;29;20051;-93
2021/07/24 06:46:45;;;;;;;26.02;14.85;;;;;;;;;;4956316;29;20047;-92
2021/07/24 06:49:14;;;;;;;21.67;14.38;;;;;;;;;;4957341;29;20462;-93
2021/07/24 06:52:13;;;;;;;28.00;15.10;;;;;;;;;;4966428;28;20035;-90
2021/07/24 06:54:42;;;;;;;25.50;14.00;;;;;;;;;;4938982;29;20082;-93
2021/07/24 06:57:14;;;;;;;25.77;14.27;;;;;;;;;;4942820;28;20042;-93
2021/07/24 06:59:43;;;;;;;22.90;13.90;;;;;;;;;;4978014;28;20106;-93
2021/07/24 07:02:13;;;;;;;22.00;13.23;;;;;;;;;;4959150;28;20086;-93
2021/07/24 07:04:43;;;;;;;21.73;13.70;;;;;;;;;;4927096;29;20063;-93
2021/07/24 07:07:12;;;;;;;25.67;14.65;;;;;;;;;;4926242;29;20055;-93
2021/07/24 07:09:42;;;;;;;23.08;14.73;;;;;;;;;;4926224;29;20075;-93
2021/07/24 07:12:11;;;;;;;21.75;13.30;;;;;;;;;;4920956;29;20051;-93
2021/07/24 07:14:41;;;;;;;24.15;14.38;;;;;;;;;;4930533;29;20122;-93
2021/07/24 07:17:10;;;;;;;22.58;13.10;;;;;;;;;;4926828;29;20529;-93
2021/07/24 07:19:40;;;;;;;25.38;13.70;;;;;;;;;;4926143;29;20204;-93
2021/07/24 07:22:09;;;;;;;21.90;13.43;;;;;;;;;;4917599;29;20048;-93
2021/07/24 07:24:39;;;;;;;20.38;12.73;;;;;;;;;;4919928;29;20051;-94
2021/07/24 07:27:08;;;;;;;32.30;14.20;;;;;;;;;;4932763;29;20080;-93
2021/07/24 07:29:36;;;;;;;21.65;13.57;;;;;;;;;;4914282;29;20093;-93
2021/07/24 07:32:08;;;;;;;23.02;14.25;;;;;;;;;;4924100;29;20528;-93
2021/07/24 07:34:45;;;;;;;23.48;14.52;;;;;;;;;;4927360;29;20060;-93
2021/07/24 07:37:15;;;;;;;22.60;13.75;;;;;;;;;;4946675;28;20135;-93
2021/07/24 07:39:45;;;;;;;24.15;13.18;;;;;;;;;;4973556;28;20059;-93
2021/07/24 07:42:14;;;;;;;20.02;13.77;;;;;;;;;;4975379;28;20165;-93
2021/07/24 07:44:43;;;;;;;25.85;15.10;;;;;;;;;;4980491;28;20166;-93
2021/07/24 07:47:13;;;;;;;23.05;14.45;;;;;;;;;;4967630;28;20114;-93
2021/07/24 07:49:45;;;;;;;22.92;13.98;;;;;;;;;;4957685;28;20054;-93
2021/07/24 07:52:16;;;;;;;21.00;13.32;;;;;;;;;;4972288;28;20051;-92
2021/07/24 07:54:45;;;;;;;22.73;13.35;;;;;;;;;;4973116;28;20053;-93
2021/07/24 07:57:14;;;;;;;21.77;12.88;;;;;;;;;;4974692;28;20101;-94
2021/07/24 07:59:43;;;;;;;20.90;12.38;;;;;;;;;;4958486;28;20051;-93
2021/07/24 08:02:13;;;;;;;19.75;12.90;;;;;;;;;;4975162;28;20066;-93
2021/07/24 08:04:42;;;;;;;22.45;13.55;;;;;;;;;;4974933;28;20058;-93
2021/07/24 08:07:11;;;;;;;23.10;14.02;;;;;;;;;;4974466;28;20065;-93
2021/07/24 08:09:40;;;;;;;22.33;12.38;;;;;;;;;;4974842;28;20063;-94
2021/07/24 08:12:10;;;;;;;21.30;13.60;;;;;;;;;;4972265;28;20069;-93
2021/07/24 08:14:39;;;;;;;25.02;13.98;;;;;;;;;;4972215;28;20522;-92
2021/07/24 08:17:10;;;;;;;23.60;13.43;;;;;;;;;;4975182;28;20054;-93
2021/07/24 08:19:41;;;;;;;23.20;13.50;;;;;;;;;;4955348;28;20055;-92
2021/07/24 08:22:10;;;;;;;23.02;14.00;;;;;;;;;;4957889;28;20047;-92
2021/07/24 08:27:26;;;;;;;27.42;14.23;;;;;;;;;;4963608;28;20047;-93
2021/07/24 08:29:57;;;;;;;22.38;14.13;;;;;;;;;;4944942;29;20063;-92
2021/07/24 08:32:26;;;;;;;26.02;13.73;;;;;;;;;;4975679;28;20074;-93
2021/07/24 08:44:24;;;;;;;25.90;14.07;;;;;;;;;;4968247;28;20267;-92
2021/07/24 08:46:55;;;;;;;23.08;14.43;;;;;;;;;;4959992;28;20117;-93
2021/07/24 08:49:28;;;;;;;23.73;15.15;;;;;;;;;;4983278;28;20057;-93
2021/07/24 08:52:02;;;;;;;22.70;14.20;;;;;;;;;;4957324;28;20058;-93
2021/07/24 08:54:58;;;;;;;22.90;13.90;;;;;;;;;;4975637;28;20106;-92
2021/07/24 08:57:53;;;;;;;22.50;13.63;;;;;;;;;;4973153;28;20062;-92
2021/07/24 09:00:23;;;;;;;20.55;13.88;;;;;;;;;;4976746;28;20078;-92
2021/07/24 09:02:53;;;;;;;20.55;13.18;;;;;;;;;;4957568;28;20063;-93
2021/07/24 09:05:22;;;;;;;24.02;13.70;;;;;;;;;;4976794;28;20121;-92
2021/07/24 09:08:01;;;;;;;21.25;14.15;;;;;;;;;;4975375;28;20054;-93
2021/07/24 09:10:32;;;;;;;19.00;12.88;;;;;;;;;;4983261;28;20050;-94
2021/07/24 09:13:07;;;;;;;21.27;13.68;;;;;;;;;;4979176;28;20082;-93
2021/07/24 09:15:36;;;;;;;23.83;12.68;;;;;;;;;;4976246;28;20125;-92
2021/07/24 09:18:41;;;;;;;;;;;;;;;;;;;;;
2021/07/24 09:21:06;;;;;;;21.30;13.88;;;;;;;;;;4960096;28;20054;-92
2021/07/24 09:23:47;;;;;;;22.92;12.85;;;;;;;;;;4975047;28;20105;-92
2021/07/24 09:26:33;;;;;;;20.83;13.27;;;;;;;;;;4957672;28;20062;-93
2021/07/24 09:29:14;;;;;;;19.80;13.20;;;;;;;;;;4980958;28;20078;-92
2021/07/24 09:31:43;;;;;;;26.23;13.50;;;;;;;;;;4984952;28;20058;-92
2021/07/24 09:34:14;;;;;;;22.73;12.85;;;;;;;;;;4982173;28;20078;-92
2021/07/24 09:36:47;;;;;;;22.58;13.15;;;;;;;;;;4974576;28;20503;-92
2021/07/24 09:39:20;;;;;;;23.05;13.63;;;;;;;;;;4962187;28;20149;-92
2021/07/24 09:41:51;;;;;;;24.55;14.32;;;;;;;;;;4974596;28;20059;-92
2021/07/24 09:44:29;;;;;;;22.35;14.63;;;;;;;;;;4973327;28;20051;-91
2021/07/24 09:46:59;;;;;;;24.88;13.75;;;;;;;;;;4974872;28;20097;-92
2021/07/24 09:49:35;;;;;;;22.92;14.10;;;;;;;;;;4993291;28;20109;-92
2021/07/24 09:52:16;;;;;;;24.23;13.02;;;;;;;;;;4993955;28;20487;-92
2021/07/24 09:54:47;;;;;;;21.83;12.73;;;;;;;;;;4975535;28;20158;-92
2021/07/24 09:57:31;;;;;;;22.02;13.73;;;;;;;;;;4977260;28;20466;-92
2021/07/24 10:00:09;;;;;;;21.13;13.32;;;;;;;;;;4978192;28;20137;-92
2021/07/24 10:02:41;;;;;;;20.92;12.35;;;;;;;;;;4985461;28;20105;-92
2021/07/24 10:05:13;;;;;;;21.10;12.13;;;;;;;;;;4960783;28;20051;-93
2021/07/24 10:07:42;;;;;;;24.05;12.85;;;;;;;;;;4971008;28;20073;-93
2021/07/24 10:10:22;;;;;;;20.80;12.15;;;;;;;;;;4961853;28;20078;-92
2021/07/24 10:12:51;;;;;;;19.08;12.98;;;;;;;;;;4978324;28;20114;-93
2021/07/24 10:15:20;;;;;;;18.92;11.77;;;;;;;;;;4976678;28;20059;-92
2021/07/24 10:17:51;;;;;;;20.23;12.68;;;;;;;;;;4979188;28;20436;-92
2021/07/24 10:20:20;;;;;;;17.90;11.98;;;;;;;;;;4978963;28;20109;-93
2021/07/24 10:22:49;;;;;;;20.40;12.40;;;;;;;;;;4962632;28;20418;-93
2021/07/24 10:25:23;;;;;;;21.70;11.85;;;;;;;;;;4979616;28;20086;-92
2021/07/24 10:27:53;;;;;;;17.77;11.85;;;;;;;;;;4979093;28;20093;-92
2021/07/24 10:33:48;;;;;;;19.98;12.73;;;;;;;;;;4929298;29;20047;-92
2021/07/24 10:36:21;;;;;;;20.15;12.85;;;;;;;;;;4935129;29;20047;-91
2021/07/24 10:38:59;;;;;;;21.90;13.13;;;;;;;;;;4938084;29;20048;-92
2021/07/24 10:41:50;;;;;;;23.58;12.90;;;;;;;;;;4937535;29;20150;-92
2021/07/24 10:44:36;;;;;;;18.42;12.32;;;;;;;;;;4937361;29;20099;-92
2021/07/24 10:47:16;;;;;;;18.70;11.73;;;;;;;;;;4936912;29;20051;-92
2021/07/24 10:50:01;;;;;;;17.73;12.10;;;;;;;;;;4934445;29;20048;-92
2021/07/24 10:52:45;;;;;;;20.33;11.90;;;;;;;;;;4937054;29;20103;-92
2021/07/24 10:55:17;;;;;;;23.30;12.25;;;;;;;;;;4920901;29;20419;-92
2021/07/24 10:58:08;;;;;;;21.30;11.75;;;;;;;;;;4976090;23;20078;-77
2021/07/24 11:00:53;;;;;;;21.73;12.55;;;;;;;;;;4986232;28;20129;-75
2021/07/24 11:03:32;;;;;;;17.20;11.52;;;;;;;;;;4972640;28;20053;-76
2021/07/24 11:06:01;;;;;;;19.02;12.40;;;;;;;;;;4973454;28;20054;-77
2021/07/24 11:08:47;;;;;;;19.23;12.73;;;;;;;;;;4975169;28;20459;-78
2021/07/24 11:11:16;;;;;;;21.08;12.32;;;;;;;;;;4972991;28;20046;-79
2021/07/24 11:13:47;;;;;;;20.25;13.07;;;;;;;;;;4973065;28;20070;-77
2021/07/24 11:16:17;;;;;;;18.50;12.35;;;;;;;;;;4971599;28;20095;-72
2021/07/24 11:19:05;;;;;;;19.25;12.07;;;;;;;;;;4962495;28;20465;-72
2021/07/24 11:21:52;;;;;;;21.85;12.77;;;;;;;;;;4965032;28;20129;-73
2021/07/24 11:24:21;;;;;;;18.23;11.35;;;;;;;;;;4973798;28;20043;-72
2021/07/24 11:26:57;;;;;;;19.33;12.15;;;;;;;;;;4973086;28;20126;-72
2021/07/24 11:29:25;;;;;;;15.55;11.23;;;;;;;;;;4973585;28;20081;-75
2021/07/24 11:31:55;;;;;;;18.27;12.07;;;;;;;;;;4972478;28;20105;-75
2021/07/24 11:34:27;;;;;;;17.48;11.77;;;;;;;;;;4971879;28;20447;-75
2021/07/24 11:36:55;;;;;;;16.15;11.25;;;;;;;;;;4968910;28;20057;-75
2021/07/24 11:39:24;;;;;;;19.27;12.73;;;;;;;;;;4973401;28;20071;-75
2021/07/24 11:41:52;;;;;;;19.20;12.00;;;;;;;;;;4972247;28;20153;-75
2021/07/24 11:44:27;;;;;;;19.42;11.35;;;;;;;;;;4971496;28;20134;-75
2021/07/24 11:46:57;;;;;;;21.55;12.93;;;;;;;;;;4972896;28;20488;-75
2021/07/24 11:49:26;;;;;;;18.35;12.07;;;;;;;;;;4973720;28;20058;-76
2021/07/24 11:51:55;;;;;;;19.00;12.02;;;;;;;;;;4970014;28;20562;-75
2021/07/24 11:54:33;;;;;;;16.58;11.20;;;;;;;;;;4971703;28;20071;-75
2021/07/24 11:57:02;;;;;;;16.02;11.27;;;;;;;;;;4973480;28;20058;-75
2021/07/24 11:59:31;;;;;;;17.30;11.45;;;;;;;;;;4972178;28;20159;-75
2021/07/24 12:02:01;;;;;;;19.33;11.60;;;;;;;;;;4970541;28;20495;-77
2021/07/24 12:04:30;;;;;;;25.42;12.43;;;;;;;;;;4961903;28;20054;-75
2021/07/24 12:06:59;;;;;;;20.58;11.77;;;;;;;;;;4969894;28;20407;-77
2021/07/24 12:09:28;;;;;;;19.45;11.98;;;;;;;;;;4969351;28;20150;-77
2021/07/24 12:11:58;;;;;;;19.08;11.85;;;;;;;;;;4956214;28;20484;-76
2021/07/24 12:14:27;;;;;;;16.95;11.88;;;;;;;;;;4969832;28;20078;-76
2021/07/24 12:17:07;;;;;;;21.27;12.23;;;;;;;;;;4972221;28;20494;-76
2021/07/24 12:19:36;;;;;;;19.60;12.05;;;;;;;;;;4971501;28;20418;-76
2021/07/24 12:22:15;;;;;;;17.20;11.00;;;;;;;;;;4972865;28;20057;-76
2021/07/24 12:24:44;;;;;;;17.75;12.13;;;;;;;;;;4970370;28;20082;-76
2021/07/24 12:27:13;;;;;;;18.10;11.45;;;;;;;;;;4972614;28;20138;-77
2021/07/24 12:29:47;;;;;;;16.08;11.40;;;;;;;;;;4971520;28;20050;-75
2021/07/24 12:32:17;;;;;;;16.58;11.75;;;;;;;;;;4971213;28;20055;-76
2021/07/24 12:34:47;;;;;;;20.90;12.07;;;;;;;;;;4969501;28;20137;-76
2021/07/24 12:37:29;;;;;;;18.77;12.02;;;;;;;;;;4964766;28;20047;-77
2021/07/24 12:39:57;;;;;;;20.67;12.35;;;;;;;;;;4969758;28;20053;-76
2021/07/24 12:42:34;;;;;;;18.55;12.70;;;;;;;;;;4969079;28;20506;-75
2021/07/24 12:45:02;;;;;;;21.42;12.35;;;;;;;;;;4969595;28;20138;-76
2021/07/24 12:47:38;;;;;;;18.88;11.93;;;;;;;;;;4971971;28;20051;-76
2021/07/24 12:50:14;;;;;;;19.58;13.23;;;;;;;;;;4970441;28;20127;-75
2021/07/24 12:52:46;;;;;;;17.83;11.55;;;;;;;;;;4972245;28;20113;-76
2021/07/24 12:55:17;;;;;;;17.77;11.43;;;;;;;;;;4970069;28;20043;-77
2021/07/24 12:57:46;;;;;;;22.38;12.70;;;;;;;;;;4971812;28;20139;-75
2021/07/24 13:00:15;;;;;;;18.38;12.02;;;;;;;;;;4971019;28;20513;-76
2021/07/24 13:02:45;;;;;;;19.10;11.70;;;;;;;;;;4967279;28;20129;-76
2021/07/24 13:05:17;;;;;;;16.85;11.60;;;;;;;;;;4971540;28;20074;-76
2021/07/24 13:07:46;;;;;;;18.63;12.00;;;;;;;;;;4980963;28;20152;-75
2021/07/24 13:10:15;;;;;;;17.05;11.90;;;;;;;;;;4971866;28;20071;-75
2021/07/24 13:12:43;;;;;;;19.02;11.90;;;;;;;;;;4971747;28;20484;-77
2021/07/24 13:15:13;;;;;;;19.02;11.52;;;;;;;;;;4971319;28;20554;-75
2021/07/24 13:17:42;;;;;;;17.90;11.15;;;;;;;;;;4962177;28;20058;-76
2021/07/24 13:20:12;;;;;;;17.25;11.75;;;;;;;;;;4971015;28;20477;-75
2021/07/24 13:22:41;;;;;;;15.00;10.70;;;;;;;;;;4973043;28;20483;-75
2021/07/24 13:25:20;;;;;;;18.85;12.30;;;;;;;;;;4969290;28;20054;-75
2021/07/24 13:30:34;;;;;;;16.20;11.18;;;;;;;;;;4967852;28;20109;-76
2021/07/24 13:33:03;;;;;;;17.95;11.63;;;;;;;;;;4971729;28;20050;-75
2021/07/24 13:35:32;;;;;;;19.25;11.40;;;;;;;;;;4973991;28;20491;-75
2021/07/24 13:38:01;;;;;;;18.15;12.02;;;;;;;;;;4975561;28;20093;-76
2021/07/24 13:40:29;;;;;;;18.27;11.70;;;;;;;;;;4975146;28;20134;-76
2021/07/24 13:43:00;;;;;;;20.00;11.80;;;;;;;;;;4975118;28;20402;-76
2021/07/24 13:45:29;;;;;;;18.02;11.52;;;;;;;;;;4974054;28;20513;-76
2021/07/24 13:47:58;;;;;;;14.38;11.07;;;;;;;;;;4973669;28;20054;-76
2021/07/24 13:50:27;;;;;;;16.58;11.88;;;;;;;;;;4974071;28;20054;-75
2021/07/24 13:52:56;;;;;;;22.48;11.57;;;;;;;;;;4974128;28;20188;-76
2021/07/24 13:55:25;;;;;;;18.70;12.15;;;;;;;;;;4974050;28;20466;-76
2021/07/24 13:57:53;;;;;;;16.58;12.10;;;;;;;;;;4970352;28;20071;-76
2021/07/24 14:00:21;;;;;;;20.27;13.35;;;;;;;;;;4974489;28;20121;-76
2021/07/24 14:02:50;;;;;;;17.63;12.02;;;;;;;;;;4973665;28;20498;-77
2021/07/24 14:05:18;;;;;;;16.92;12.77;;;;;;;;;;4974410;28;20050;-77
2021/07/24 14:07:46;;;;;;;24.30;12.65;;;;;;;;;;4974669;28;20129;-76
2021/07/24 14:10:16;;;;;;;20.95;12.68;;;;;;;;;;4974732;28;20049;-76
2021/07/24 14:12:44;;;;;;;16.10;12.18;;;;;;;;;;4970098;28;20130;-76
2021/07/24 14:15:16;;;;;;;18.42;12.27;;;;;;;;;;4971779;28;20047;-76
2021/07/24 14:17:44;;;;;;;19.05;12.60;;;;;;;;;;4975196;28;20047;-76
2021/07/24 14:20:13;;;;;;;18.23;11.95;;;;;;;;;;4974500;28;20094;-77
2021/07/24 14:22:41;;;;;;;21.92;12.40;;;;;;;;;;4974049;28;20563;-75
2021/07/24 14:25:10;;;;;;;17.30;12.02;;;;;;;;;;4974411;28;20073;-76
2021/07/24 14:27:40;;;;;;;20.48;12.15;;;;;;;;;;4973675;28;20093;-72
2021/07/24 14:30:09;;;;;;;17.60;12.95;;;;;;;;;;4973481;28;20050;-72
2021/07/24 14:32:49;;;;;;;20.15;11.88;;;;;;;;;;4974161;28;20051;-72
2021/07/24 14:35:18;;;;;;;22.85;12.70;;;;;;;;;;4973279;28;20121;-71
2021/07/24 14:37:46;;;;;;;18.70;12.73;;;;;;;;;;4974672;28;20097;-71
2021/07/24 14:40:15;;;;;;;19.15;11.77;;;;;;;;;;4972930;28;20058;-71
2021/07/24 14:42:44;;;;;;;19.05;11.85;;;;;;;;;;4972541;28;20368;-71
2021/07/24 14:45:13;;;;;;;17.35;11.85;;;;;;;;;;4969172;28;20121;-76
2021/07/24 14:47:41;;;;;;;21.83;12.52;;;;;;;;;;4970782;28;20061;-72
2021/07/24 14:50:09;;;;;;;17.52;12.65;;;;;;;;;;4972743;28;20092;-73
2021/07/24 14:52:38;;;;;;;18.85;11.77;;;;;;;;;;4973867;28;20074;-73
2021/07/24 14:55:07;;;;;;;19.38;12.82;;;;;;;;;;4985299;28;20490;-73
2021/07/24 14:57:35;;;;;;;19.45;13.07;;;;;;;;;;4993084;28;20050;-73
2021/07/24 15:00:06;;;;;;;18.92;13.55;;;;;;;;;;4994232;28;20141;-73
2021/07/24 15:02:35;;;;;;;21.38;12.45;;;;;;;;;;4974068;28;20152;-71
2021/07/24 15:05:04;;;;;;;22.33;14.00;;;;;;;;;;4973420;28;20042;-71
2021/07/24 15:07:32;;;;;;;22.35;13.45;;;;;;;;;;4961797;28;20114;-71
2021/07/24 15:10:01;;;;;;;19.73;12.65;;;;;;;;;;4974215;28;20142;-72
2021/07/24 15:12:29;;;;;;;18.95;12.88;;;;;;;;;;4973739;28;20085;-73